sensor_id;sensor_type;location;lat;lon;timestamp;P1;durP1;ratioP1;P2;durP2;ratioP2
179;SDS011;78;48.788;9.010;2024-03-25T00:01:15;21.00;;;4.77;;
179;SDS011;78;48.788;9.010;2024-03-25T00:03:41;21.90;;;4.70;;
179;SDS011;78;48.788;9.010;2024-03-25T00:06:07;21.47;;;4.80;;
179;SDS011;78;48.788;9.010;2024-03-25T00:08:33;30.03;;;4.93;;
179;SDS011;78;48.788;9.010;2024-03-25T00:10:59;19.33;;;4.30;;
179;SDS011;78;48.788;9.010;2024-03-25T00:13:25;19.23;;;4.57;;
179;SDS011;78;48.788;9.010;2024-03-25T00:15:51;18.90;;;4.77;;
179;SDS011;78;48.788;9.010;2024-03-25T00:18:17;22.60;;;4.80;;
179;SDS011;78;48.788;9.010;2024-03-25T00:20:44;19.00;;;4.43;;
179;SDS011;78;48.788;9.010;2024-03-25T00:23:10;21.10;;;4.90;;
179;SDS011;78;48.788;9.010;2024-03-25T00:25:37;17.97;;;4.57;;
179;SDS011;78;48.788;9.010;2024-03-25T00:28:03;23.17;;;5.00;;
179;SDS011;78;48.788;9.010;2024-03-25T00:30:29;20.50;;;4.67;;
179;SDS011;78;48.788;9.010;2024-03-25T00:32:56;19.50;;;4.40;;
179;SDS011;78;48.788;9.010;2024-03-25T00:35:22;19.93;;;4.33;;
179;SDS011;78;48.788;9.010;2024-03-25T00:37:49;22.30;;;5.50;;
179;SDS011;78;48.788;9.010;2024-03-25T00:40:15;23.20;;;5.53;;
179;SDS011;78;48.788;9.010;2024-03-25T00:42:41;22.93;;;5.30;;
179;SDS011;78;48.788;9.010;2024-03-25T00:45:07;20.00;;;4.90;;
179;SDS011;78;48.788;9.010;2024-03-25T00:47:33;20.50;;;5.07;;
179;SDS011;78;48.788;9.010;2024-03-25T00:50:00;22.47;;;4.80;;
179;SDS011;78;48.788;9.010;2024-03-25T00:52:26;21.10;;;5.27;;
179;SDS011;78;48.788;9.010;2024-03-25T00:54:52;24.13;;;4.97;;
179;SDS011;78;48.788;9.010;2024-03-25T00:57:19;22.03;;;4.90;;
179;SDS011;78;48.788;9.010;2024-03-25T00:59:45;18.70;;;4.70;;
179;SDS011;78;48.788;9.010;2024-03-25T01:02:11;20.20;;;4.93;;
179;SDS011;78;48.788;9.010;2024-03-25T01:04:38;26.53;;;5.57;;
179;SDS011;78;48.788;9.010;2024-03-25T01:07:04;20.37;;;4.80;;
179;SDS011;78;48.788;9.010;2024-03-25T01:09:30;20.03;;;4.43;;
179;SDS011;78;48.788;9.010;2024-03-25T01:11:57;22.67;;;5.10;;
179;SDS011;78;48.788;9.010;2024-03-25T01:14:23;23.77;;;5.30;;
179;SDS011;78;48.788;9.010;2024-03-25T01:16:49;21.20;;;4.70;;
179;SDS011;78;48.788;9.010;2024-03-25T01:19:16;20.83;;;5.00;;
179;SDS011;78;48.788;9.010;2024-03-25T01:21:42;20.57;;;5.30;;
179;SDS011;78;48.788;9.010;2024-03-25T01:24:09;21.43;;;5.73;;
179;SDS011;78;48.788;9.010;2024-03-25T01:26:35;21.00;;;5.20;;
179;SDS011;78;48.788;9.010;2024-03-25T01:29:01;20.83;;;4.80;;
179;SDS011;78;48.788;9.010;2024-03-25T01:31:28;19.50;;;4.90;;
179;SDS011;78;48.788;9.010;2024-03-25T01:33:54;26.17;;;5.97;;
179;SDS011;78;48.788;9.010;2024-03-25T01:36:20;19.67;;;5.00;;
179;SDS011;78;48.788;9.010;2024-03-25T01:38:46;20.40;;;4.73;;
179;SDS011;78;48.788;9.010;2024-03-25T01:41:13;21.57;;;5.23;;
179;SDS011;78;48.788;9.010;2024-03-25T01:43:42;23.57;;;5.50;;
179;SDS011;78;48.788;9.010;2024-03-25T01:46:09;20.57;;;5.20;;
179;SDS011;78;48.788;9.010;2024-03-25T01:48:35;21.17;;;4.90;;
179;SDS011;78;48.788;9.010;2024-03-25T01:51:01;25.00;;;5.10;;
179;SDS011;78;48.788;9.010;2024-03-25T01:53:29;18.43;;;4.70;;
179;SDS011;78;48.788;9.010;2024-03-25T01:55:55;22.63;;;5.37;;
179;SDS011;78;48.788;9.010;2024-03-25T01:58:22;18.43;;;5.03;;
179;SDS011;78;48.788;9.010;2024-03-25T02:00:51;18.90;;;4.87;;
179;SDS011;78;48.788;9.010;2024-03-25T02:03:17;18.50;;;4.77;;
179;SDS011;78;48.788;9.010;2024-03-25T02:05:43;22.07;;;5.20;;
179;SDS011;78;48.788;9.010;2024-03-25T02:08:10;23.03;;;4.97;;
179;SDS011;78;48.788;9.010;2024-03-25T02:10:37;27.20;;;5.70;;
179;SDS011;78;48.788;9.010;2024-03-25T02:13:04;22.40;;;5.03;;
179;SDS011;78;48.788;9.010;2024-03-25T02:15:32;24.23;;;5.07;;
179;SDS011;78;48.788;9.010;2024-03-25T02:17:59;21.60;;;4.80;;
179;SDS011;78;48.788;9.010;2024-03-25T02:20:25;20.10;;;4.77;;
179;SDS011;78;48.788;9.010;2024-03-25T02:22:52;22.90;;;5.53;;
179;SDS011;78;48.788;9.010;2024-03-25T02:25:18;25.83;;;5.50;;
179;SDS011;78;48.788;9.010;2024-03-25T02:27:44;21.50;;;5.23;;
179;SDS011;78;48.788;9.010;2024-03-25T02:30:12;22.90;;;5.80;;
179;SDS011;78;48.788;9.010;2024-03-25T02:32:39;23.20;;;6.27;;
179;SDS011;78;48.788;9.010;2024-03-25T02:35:06;21.60;;;5.67;;
179;SDS011;78;48.788;9.010;2024-03-25T02:37:33;20.87;;;5.20;;
179;SDS011;78;48.788;9.010;2024-03-25T02:40:01;28.30;;;5.73;;
179;SDS011;78;48.788;9.010;2024-03-25T02:42:31;22.53;;;5.30;;
179;SDS011;78;48.788;9.010;2024-03-25T02:44:57;23.63;;;6.20;;
179;SDS011;78;48.788;9.010;2024-03-25T02:47:24;25.10;;;6.53;;
179;SDS011;78;48.788;9.010;2024-03-25T02:49:50;22.70;;;5.30;;
179;SDS011;78;48.788;9.010;2024-03-25T02:52:18;24.10;;;5.50;;
179;SDS011;78;48.788;9.010;2024-03-25T02:54:44;26.90;;;6.10;;
179;SDS011;78;48.788;9.010;2024-03-25T02:57:10;21.33;;;5.80;;
179;SDS011;78;48.788;9.010;2024-03-25T02:59:36;20.97;;;5.50;;
179;SDS011;78;48.788;9.010;2024-03-25T03:02:03;24.77;;;5.80;;
179;SDS011;78;48.788;9.010;2024-03-25T03:04:29;22.83;;;4.97;;
179;SDS011;78;48.788;9.010;2024-03-25T03:06:56;21.10;;;5.60;;
179;SDS011;78;48.788;9.010;2024-03-25T03:09:22;21.80;;;5.40;;
179;SDS011;78;48.788;9.010;2024-03-25T03:11:48;21.93;;;5.90;;
179;SDS011;78;48.788;9.010;2024-03-25T03:14:14;20.63;;;5.57;;
179;SDS011;78;48.788;9.010;2024-03-25T03:16:41;20.33;;;5.77;;
179;SDS011;78;48.788;9.010;2024-03-25T03:19:07;21.73;;;5.70;;
179;SDS011;78;48.788;9.010;2024-03-25T03:21:33;26.70;;;6.17;;
179;SDS011;78;48.788;9.010;2024-03-25T03:24:01;23.33;;;6.03;;
179;SDS011;78;48.788;9.010;2024-03-25T03:26:27;24.87;;;5.80;;
179;SDS011;78;48.788;9.010;2024-03-25T03:28:53;20.40;;;5.70;;
179;SDS011;78;48.788;9.010;2024-03-25T03:31:20;19.93;;;4.90;;
179;SDS011;78;48.788;9.010;2024-03-25T03:33:47;20.93;;;5.27;;
179;SDS011;78;48.788;9.010;2024-03-25T03:36:15;22.47;;;5.37;;
179;SDS011;78;48.788;9.010;2024-03-25T03:38:41;21.40;;;5.30;;
179;SDS011;78;48.788;9.010;2024-03-25T03:41:08;21.20;;;5.97;;
179;SDS011;78;48.788;9.010;2024-03-25T03:43:34;19.70;;;5.07;;
179;SDS011;78;48.788;9.010;2024-03-25T03:46:00;20.47;;;5.30;;
179;SDS011;78;48.788;9.010;2024-03-25T03:48:28;20.77;;;5.20;;
179;SDS011;78;48.788;9.010;2024-03-25T03:50:54;24.80;;;5.90;;
179;SDS011;78;48.788;9.010;2024-03-25T03:53:20;20.00;;;5.00;;
179;SDS011;78;48.788;9.010;2024-03-25T03:55:55;25.23;;;5.40;;
179;SDS011;78;48.788;9.010;2024-03-25T03:58:23;21.97;;;5.10;;
179;SDS011;78;48.788;9.010;2024-03-25T04:00:50;26.87;;;5.43;;
179;SDS011;78;48.788;9.010;2024-03-25T04:03:16;24.40;;;5.43;;
179;SDS011;78;48.788;9.010;2024-03-25T04:05:42;24.53;;;5.80;;
179;SDS011;78;48.788;9.010;2024-03-25T04:08:09;24.47;;;6.50;;
179;SDS011;78;48.788;9.010;2024-03-25T04:10:35;23.80;;;5.70;;
179;SDS011;78;48.788;9.010;2024-03-25T04:13:02;23.80;;;5.60;;
179;SDS011;78;48.788;9.010;2024-03-25T04:15:28;22.37;;;5.57;;
179;SDS011;78;48.788;9.010;2024-03-25T04:17:54;20.80;;;5.00;;
179;SDS011;78;48.788;9.010;2024-03-25T04:20:20;21.33;;;5.30;;
179;SDS011;78;48.788;9.010;2024-03-25T04:22:47;25.47;;;5.80;;
179;SDS011;78;48.788;9.010;2024-03-25T04:25:13;19.40;;;5.67;;
179;SDS011;78;48.788;9.010;2024-03-25T04:27:42;25.23;;;6.13;;
179;SDS011;78;48.788;9.010;2024-03-25T04:30:08;25.33;;;5.70;;
179;SDS011;78;48.788;9.010;2024-03-25T04:32:35;31.57;;;5.87;;
179;SDS011;78;48.788;9.010;2024-03-25T04:35:04;19.27;;;5.07;;
179;SDS011;78;48.788;9.010;2024-03-25T04:37:31;22.00;;;5.87;;
179;SDS011;78;48.788;9.010;2024-03-25T04:39:57;20.73;;;5.27;;
179;SDS011;78;48.788;9.010;2024-03-25T04:42:24;24.50;;;5.83;;
179;SDS011;78;48.788;9.010;2024-03-25T04:44:50;21.87;;;5.83;;
179;SDS011;78;48.788;9.010;2024-03-25T04:47:17;23.70;;;5.73;;
179;SDS011;78;48.788;9.010;2024-03-25T04:49:43;20.10;;;5.50;;
179;SDS011;78;48.788;9.010;2024-03-25T04:52:12;20.40;;;5.57;;
179;SDS011;78;48.788;9.010;2024-03-25T04:54:39;25.47;;;6.20;;
179;SDS011;78;48.788;9.010;2024-03-25T04:57:05;22.00;;;6.00;;
179;SDS011;78;48.788;9.010;2024-03-25T04:59:31;24.27;;;5.43;;
179;SDS011;78;48.788;9.010;2024-03-25T05:01:58;25.40;;;5.77;;
179;SDS011;78;48.788;9.010;2024-03-25T05:04:24;21.73;;;5.87;;
179;SDS011;78;48.788;9.010;2024-03-25T05:06:51;20.43;;;6.13;;
179;SDS011;78;48.788;9.010;2024-03-25T05:09:17;23.97;;;5.83;;
179;SDS011;78;48.788;9.010;2024-03-25T05:11:43;20.67;;;5.43;;
179;SDS011;78;48.788;9.010;2024-03-25T05:14:09;21.40;;;6.10;;
179;SDS011;78;48.788;9.010;2024-03-25T05:16:36;22.57;;;5.77;;
179;SDS011;78;48.788;9.010;2024-03-25T05:19:02;22.50;;;6.17;;
179;SDS011;78;48.788;9.010;2024-03-25T05:21:31;21.80;;;5.80;;
179;SDS011;78;48.788;9.010;2024-03-25T05:23:58;24.67;;;5.97;;
179;SDS011;78;48.788;9.010;2024-03-25T05:26:24;21.50;;;6.07;;
179;SDS011;78;48.788;9.010;2024-03-25T05:28:54;22.63;;;5.90;;
179;SDS011;78;48.788;9.010;2024-03-25T05:31:20;24.20;;;6.50;;
179;SDS011;78;48.788;9.010;2024-03-25T05:33:47;19.60;;;5.57;;
179;SDS011;78;48.788;9.010;2024-03-25T05:36:13;26.00;;;6.60;;
179;SDS011;78;48.788;9.010;2024-03-25T05:38:40;22.50;;;6.00;;
179;SDS011;78;48.788;9.010;2024-03-25T05:41:08;22.77;;;6.17;;
179;SDS011;78;48.788;9.010;2024-03-25T05:43:34;21.17;;;5.90;;
179;SDS011;78;48.788;9.010;2024-03-25T05:46:00;26.90;;;6.23;;
179;SDS011;78;48.788;9.010;2024-03-25T05:48:27;19.50;;;5.27;;
179;SDS011;78;48.788;9.010;2024-03-25T05:51:05;22.70;;;6.60;;
179;SDS011;78;48.788;9.010;2024-03-25T05:53:34;26.10;;;6.37;;
179;SDS011;78;48.788;9.010;2024-03-25T05:56:01;24.53;;;6.00;;
179;SDS011;78;48.788;9.010;2024-03-25T05:58:28;22.23;;;5.97;;
179;SDS011;78;48.788;9.010;2024-03-25T06:00:54;26.20;;;6.00;;
179;SDS011;78;48.788;9.010;2024-03-25T06:03:21;25.63;;;6.27;;
179;SDS011;78;48.788;9.010;2024-03-25T06:05:47;25.70;;;5.93;;
179;SDS011;78;48.788;9.010;2024-03-25T06:08:15;25.70;;;6.10;;
179;SDS011;78;48.788;9.010;2024-03-25T06:10:52;22.03;;;6.03;;
179;SDS011;78;48.788;9.010;2024-03-25T06:13:19;24.77;;;6.30;;
179;SDS011;78;48.788;9.010;2024-03-25T06:15:46;28.07;;;6.43;;
179;SDS011;78;48.788;9.010;2024-03-25T06:18:12;22.23;;;6.10;;
179;SDS011;78;48.788;9.010;2024-03-25T06:20:38;23.03;;;6.10;;
179;SDS011;78;48.788;9.010;2024-03-25T06:23:05;23.00;;;6.17;;
179;SDS011;78;48.788;9.010;2024-03-25T06:25:31;21.67;;;5.47;;
179;SDS011;78;48.788;9.010;2024-03-25T06:27:58;24.17;;;6.37;;
179;SDS011;78;48.788;9.010;2024-03-25T06:30:25;20.53;;;5.60;;
179;SDS011;78;48.788;9.010;2024-03-25T06:33:10;22.70;;;6.03;;
179;SDS011;78;48.788;9.010;2024-03-25T06:35:54;22.83;;;5.87;;
179;SDS011;78;48.788;9.010;2024-03-25T06:38:21;25.33;;;5.73;;
179;SDS011;78;48.788;9.010;2024-03-25T06:40:47;23.80;;;6.30;;
179;SDS011;78;48.788;9.010;2024-03-25T06:43:13;24.80;;;6.37;;
179;SDS011;78;48.788;9.010;2024-03-25T06:45:41;23.03;;;5.93;;
179;SDS011;78;48.788;9.010;2024-03-25T06:48:08;24.03;;;6.33;;
179;SDS011;78;48.788;9.010;2024-03-25T06:50:34;31.47;;;6.87;;
179;SDS011;78;48.788;9.010;2024-03-25T06:53:02;25.87;;;8.43;;
179;SDS011;78;48.788;9.010;2024-03-25T06:55:28;24.33;;;6.27;;
179;SDS011;78;48.788;9.010;2024-03-25T06:57:54;19.90;;;5.80;;
179;SDS011;78;48.788;9.010;2024-03-25T07:00:21;25.50;;;6.40;;
179;SDS011;78;48.788;9.010;2024-03-25T07:02:50;21.33;;;6.13;;
179;SDS011;78;48.788;9.010;2024-03-25T07:05:16;22.63;;;6.20;;
179;SDS011;78;48.788;9.010;2024-03-25T07:07:43;20.53;;;5.30;;
179;SDS011;78;48.788;9.010;2024-03-25T07:10:09;24.93;;;6.30;;
179;SDS011;78;48.788;9.010;2024-03-25T07:12:36;20.23;;;6.30;;
179;SDS011;78;48.788;9.010;2024-03-25T07:15:02;22.13;;;6.00;;
179;SDS011;78;48.788;9.010;2024-03-25T07:17:28;20.70;;;5.80;;
179;SDS011;78;48.788;9.010;2024-03-25T07:19:54;20.57;;;5.77;;
179;SDS011;78;48.788;9.010;2024-03-25T07:22:20;20.40;;;5.57;;
179;SDS011;78;48.788;9.010;2024-03-25T07:24:47;26.63;;;6.50;;
179;SDS011;78;48.788;9.010;2024-03-25T07:27:13;21.47;;;5.97;;
179;SDS011;78;48.788;9.010;2024-03-25T07:29:39;20.37;;;5.47;;
179;SDS011;78;48.788;9.010;2024-03-25T07:32:05;24.20;;;5.40;;
179;SDS011;78;48.788;9.010;2024-03-25T07:34:33;22.10;;;5.57;;
179;SDS011;78;48.788;9.010;2024-03-25T07:36:59;23.83;;;5.57;;
179;SDS011;78;48.788;9.010;2024-03-25T07:39:25;19.60;;;5.17;;
179;SDS011;78;48.788;9.010;2024-03-25T07:41:52;25.87;;;6.03;;
179;SDS011;78;48.788;9.010;2024-03-25T07:44:18;19.00;;;4.93;;
179;SDS011;78;48.788;9.010;2024-03-25T07:46:45;23.43;;;5.97;;
179;SDS011;78;48.788;9.010;2024-03-25T07:49:11;21.03;;;5.13;;
179;SDS011;78;48.788;9.010;2024-03-25T07:51:37;24.73;;;5.87;;
179;SDS011;78;48.788;9.010;2024-03-25T07:54:04;21.40;;;4.63;;
179;SDS011;78;48.788;9.010;2024-03-25T07:56:32;19.47;;;5.10;;
179;SDS011;78;48.788;9.010;2024-03-25T07:59:03;20.10;;;5.03;;
179;SDS011;78;48.788;9.010;2024-03-25T08:01:29;19.80;;;5.07;;
179;SDS011;78;48.788;9.010;2024-03-25T08:03:55;19.10;;;4.60;;
179;SDS011;78;48.788;9.010;2024-03-25T08:06:22;20.30;;;4.83;;
179;SDS011;78;48.788;9.010;2024-03-25T08:08:49;19.40;;;4.90;;
179;SDS011;78;48.788;9.010;2024-03-25T08:11:15;19.80;;;4.83;;
179;SDS011;78;48.788;9.010;2024-03-25T08:13:41;19.17;;;4.60;;
179;SDS011;78;48.788;9.010;2024-03-25T08:16:07;19.57;;;4.13;;
179;SDS011;78;48.788;9.010;2024-03-25T08:18:34;20.80;;;4.40;;
179;SDS011;78;48.788;9.010;2024-03-25T08:21:00;18.50;;;4.20;;
179;SDS011;78;48.788;9.010;2024-03-25T08:23:27;17.33;;;3.83;;
179;SDS011;78;48.788;9.010;2024-03-25T08:25:53;18.67;;;3.70;;
179;SDS011;78;48.788;9.010;2024-03-25T08:28:19;16.00;;;3.63;;
179;SDS011;78;48.788;9.010;2024-03-25T08:30:46;20.23;;;4.80;;
179;SDS011;78;48.788;9.010;2024-03-25T08:33:12;22.30;;;4.23;;
179;SDS011;78;48.788;9.010;2024-03-25T08:35:38;20.50;;;4.40;;
179;SDS011;78;48.788;9.010;2024-03-25T08:38:04;18.50;;;3.57;;
179;SDS011;78;48.788;9.010;2024-03-25T08:40:30;17.60;;;3.50;;
179;SDS011;78;48.788;9.010;2024-03-25T08:42:56;20.07;;;3.07;;
179;SDS011;78;48.788;9.010;2024-03-25T08:45:22;18.23;;;3.50;;
179;SDS011;78;48.788;9.010;2024-03-25T08:47:48;16.40;;;3.40;;
179;SDS011;78;48.788;9.010;2024-03-25T08:50:14;16.47;;;3.30;;
179;SDS011;78;48.788;9.010;2024-03-25T08:52:40;15.27;;;3.00;;
179;SDS011;78;48.788;9.010;2024-03-25T08:55:06;19.23;;;3.60;;
179;SDS011;78;48.788;9.010;2024-03-25T08:57:33;17.30;;;3.90;;
179;SDS011;78;48.788;9.010;2024-03-25T08:59:59;24.57;;;4.17;;
179;SDS011;78;48.788;9.010;2024-03-25T09:02:25;19.50;;;3.73;;
179;SDS011;78;48.788;9.010;2024-03-25T09:04:51;17.97;;;3.40;;
179;SDS011;78;48.788;9.010;2024-03-25T09:07:17;16.50;;;3.30;;
179;SDS011;78;48.788;9.010;2024-03-25T09:09:44;16.53;;;3.60;;
179;SDS011;78;48.788;9.010;2024-03-25T09:12:29;16.60;;;3.50;;
179;SDS011;78;48.788;9.010;2024-03-25T09:14:55;18.87;;;3.67;;
179;SDS011;78;48.788;9.010;2024-03-25T09:17:22;19.70;;;3.50;;
179;SDS011;78;48.788;9.010;2024-03-25T09:19:50;19.53;;;3.90;;
179;SDS011;78;48.788;9.010;2024-03-25T09:22:16;18.13;;;3.47;;
179;SDS011;78;48.788;9.010;2024-03-25T09:24:42;17.60;;;3.63;;
179;SDS011;78;48.788;9.010;2024-03-25T09:27:10;20.47;;;3.90;;
179;SDS011;78;48.788;9.010;2024-03-25T09:29:36;16.73;;;3.37;;
179;SDS011;78;48.788;9.010;2024-03-25T09:32:02;18.40;;;3.47;;
179;SDS011;78;48.788;9.010;2024-03-25T09:34:28;17.67;;;3.43;;
179;SDS011;78;48.788;9.010;2024-03-25T09:36:54;18.63;;;3.70;;
179;SDS011;78;48.788;9.010;2024-03-25T09:39:20;17.50;;;3.20;;
179;SDS011;78;48.788;9.010;2024-03-25T09:41:46;15.50;;;3.40;;
179;SDS011;78;48.788;9.010;2024-03-25T09:44:13;19.00;;;3.57;;
179;SDS011;78;48.788;9.010;2024-03-25T09:46:39;22.07;;;3.43;;
179;SDS011;78;48.788;9.010;2024-03-25T09:49:06;19.50;;;3.60;;
179;SDS011;78;48.788;9.010;2024-03-25T09:51:32;18.73;;;3.20;;
179;SDS011;78;48.788;9.010;2024-03-25T09:53:58;18.37;;;3.50;;
179;SDS011;78;48.788;9.010;2024-03-25T09:56:24;17.80;;;3.10;;
179;SDS011;78;48.788;9.010;2024-03-25T09:58:51;19.40;;;3.60;;
179;SDS011;78;48.788;9.010;2024-03-25T10:01:17;16.63;;;3.20;;
179;SDS011;78;48.788;9.010;2024-03-25T10:03:45;18.73;;;3.70;;
179;SDS011;78;48.788;9.010;2024-03-25T10:06:11;19.80;;;3.20;;
179;SDS011;78;48.788;9.010;2024-03-25T10:08:38;17.87;;;3.70;;
179;SDS011;78;48.788;9.010;2024-03-25T10:11:04;16.60;;;3.93;;
179;SDS011;78;48.788;9.010;2024-03-25T10:13:30;18.43;;;3.67;;
179;SDS011;78;48.788;9.010;2024-03-25T10:15:56;20.33;;;3.70;;
179;SDS011;78;48.788;9.010;2024-03-25T10:18:23;19.67;;;3.70;;
179;SDS011;78;48.788;9.010;2024-03-25T10:20:49;17.77;;;3.40;;
179;SDS011;78;48.788;9.010;2024-03-25T10:23:16;17.13;;;3.50;;
179;SDS011;78;48.788;9.010;2024-03-25T10:25:47;15.67;;;2.87;;
179;SDS011;78;48.788;9.010;2024-03-25T10:28:13;15.20;;;2.90;;
179;SDS011;78;48.788;9.010;2024-03-25T10:30:40;15.80;;;3.20;;
179;SDS011;78;48.788;9.010;2024-03-25T10:33:07;22.10;;;3.57;;
179;SDS011;78;48.788;9.010;2024-03-25T10:35:37;17.90;;;3.30;;
179;SDS011;78;48.788;9.010;2024-03-25T10:38:06;15.57;;;3.03;;
179;SDS011;78;48.788;9.010;2024-03-25T10:40:34;17.43;;;3.33;;
179;SDS011;78;48.788;9.010;2024-03-25T10:43:02;17.20;;;3.23;;
179;SDS011;78;48.788;9.010;2024-03-25T10:45:29;15.90;;;2.80;;
179;SDS011;78;48.788;9.010;2024-03-25T10:47:58;16.53;;;3.07;;
179;SDS011;78;48.788;9.010;2024-03-25T10:50:26;16.17;;;2.87;;
179;SDS011;78;48.788;9.010;2024-03-25T10:52:54;17.40;;;3.37;;
179;SDS011;78;48.788;9.010;2024-03-25T10:55:20;19.07;;;3.40;;
179;SDS011;78;48.788;9.010;2024-03-25T10:57:48;17.30;;;3.60;;
179;SDS011;78;48.788;9.010;2024-03-25T11:00:14;20.10;;;4.20;;
179;SDS011;78;48.788;9.010;2024-03-25T11:02:42;17.13;;;3.47;;
179;SDS011;78;48.788;9.010;2024-03-25T11:05:08;16.83;;;3.50;;
179;SDS011;78;48.788;9.010;2024-03-25T11:07:35;14.60;;;2.60;;
179;SDS011;78;48.788;9.010;2024-03-25T11:10:07;15.70;;;2.70;;
179;SDS011;78;48.788;9.010;2024-03-25T11:12:38;15.30;;;2.97;;
179;SDS011;78;48.788;9.010;2024-03-25T11:15:06;18.60;;;3.40;;
179;SDS011;78;48.788;9.010;2024-03-25T11:17:33;16.20;;;2.93;;
179;SDS011;78;48.788;9.010;2024-03-25T11:20:12;17.23;;;3.13;;
179;SDS011;78;48.788;9.010;2024-03-25T11:22:52;16.27;;;3.27;;
179;SDS011;78;48.788;9.010;2024-03-25T11:25:20;19.37;;;4.07;;
179;SDS011;78;48.788;9.010;2024-03-25T11:27:46;20.63;;;3.80;;
179;SDS011;78;48.788;9.010;2024-03-25T11:30:13;18.47;;;3.87;;
179;SDS011;78;48.788;9.010;2024-03-25T11:32:43;18.83;;;4.00;;
179;SDS011;78;48.788;9.010;2024-03-25T11:35:10;17.13;;;3.70;;
179;SDS011;78;48.788;9.010;2024-03-25T11:37:40;16.70;;;3.70;;
179;SDS011;78;48.788;9.010;2024-03-25T11:40:06;16.50;;;3.60;;
179;SDS011;78;48.788;9.010;2024-03-25T11:42:34;16.90;;;3.60;;
179;SDS011;78;48.788;9.010;2024-03-25T11:45:01;24.53;;;3.70;;
179;SDS011;78;48.788;9.010;2024-03-25T11:47:27;21.47;;;4.00;;
179;SDS011;78;48.788;9.010;2024-03-25T11:49:54;15.90;;;3.50;;
179;SDS011;78;48.788;9.010;2024-03-25T11:52:21;15.83;;;3.57;;
179;SDS011;78;48.788;9.010;2024-03-25T11:54:56;17.40;;;3.53;;
179;SDS011;78;48.788;9.010;2024-03-25T11:57:22;16.90;;;3.60;;
179;SDS011;78;48.788;9.010;2024-03-25T11:59:49;16.73;;;3.80;;
179;SDS011;78;48.788;9.010;2024-03-25T12:02:16;15.30;;;3.40;;
179;SDS011;78;48.788;9.010;2024-03-25T12:04:45;20.20;;;4.10;;
179;SDS011;78;48.788;9.010;2024-03-25T12:07:12;21.13;;;4.07;;
179;SDS011;78;48.788;9.010;2024-03-25T12:09:38;19.60;;;4.03;;
179;SDS011;78;48.788;9.010;2024-03-25T12:12:23;16.40;;;3.70;;
179;SDS011;78;48.788;9.010;2024-03-25T12:14:49;16.70;;;3.47;;
179;SDS011;78;48.788;9.010;2024-03-25T12:17:17;16.80;;;3.83;;
179;SDS011;78;48.788;9.010;2024-03-25T12:19:43;18.87;;;3.90;;
179;SDS011;78;48.788;9.010;2024-03-25T12:22:10;16.07;;;3.60;;
179;SDS011;78;48.788;9.010;2024-03-25T12:24:36;17.77;;;3.73;;
179;SDS011;78;48.788;9.010;2024-03-25T12:27:04;19.53;;;3.90;;
179;SDS011;78;48.788;9.010;2024-03-25T12:29:31;17.43;;;3.63;;
179;SDS011;78;48.788;9.010;2024-03-25T12:31:57;18.23;;;3.80;;
179;SDS011;78;48.788;9.010;2024-03-25T12:34:27;17.17;;;3.57;;
179;SDS011;78;48.788;9.010;2024-03-25T12:37:02;20.00;;;3.47;;
179;SDS011;78;48.788;9.010;2024-03-25T12:39:32;16.20;;;3.40;;
179;SDS011;78;48.788;9.010;2024-03-25T12:42:03;18.73;;;3.73;;
179;SDS011;78;48.788;9.010;2024-03-25T12:44:29;17.77;;;3.20;;
179;SDS011;78;48.788;9.010;2024-03-25T12:46:55;16.43;;;3.60;;
179;SDS011;78;48.788;9.010;2024-03-25T12:49:24;15.30;;;3.50;;
179;SDS011;78;48.788;9.010;2024-03-25T12:51:50;16.63;;;3.40;;
179;SDS011;78;48.788;9.010;2024-03-25T12:54:16;35.63;;;4.73;;
179;SDS011;78;48.788;9.010;2024-03-25T12:56:42;18.60;;;3.53;;
179;SDS011;78;48.788;9.010;2024-03-25T12:59:09;15.43;;;3.43;;
179;SDS011;78;48.788;9.010;2024-03-25T13:01:35;17.43;;;3.60;;
179;SDS011;78;48.788;9.010;2024-03-25T13:04:02;15.73;;;3.27;;
179;SDS011;78;48.788;9.010;2024-03-25T13:06:28;15.30;;;3.00;;
179;SDS011;78;48.788;9.010;2024-03-25T13:08:54;17.10;;;3.50;;
179;SDS011;78;48.788;9.010;2024-03-25T13:11:21;15.77;;;3.10;;
179;SDS011;78;48.788;9.010;2024-03-25T13:13:47;15.70;;;2.80;;
179;SDS011;78;48.788;9.010;2024-03-25T13:16:13;15.53;;;2.90;;
179;SDS011;78;48.788;9.010;2024-03-25T13:18:40;16.10;;;3.17;;
179;SDS011;78;48.788;9.010;2024-03-25T13:21:06;25.80;;;3.80;;
179;SDS011;78;48.788;9.010;2024-03-25T13:23:32;16.17;;;3.30;;
179;SDS011;78;48.788;9.010;2024-03-25T13:25:58;16.90;;;3.30;;
179;SDS011;78;48.788;9.010;2024-03-25T13:28:25;18.47;;;3.47;;
179;SDS011;78;48.788;9.010;2024-03-25T13:30:51;17.23;;;3.33;;
179;SDS011;78;48.788;9.010;2024-03-25T13:33:18;17.80;;;3.27;;
179;SDS011;78;48.788;9.010;2024-03-25T13:35:44;15.90;;;3.23;;
179;SDS011;78;48.788;9.010;2024-03-25T13:38:11;15.60;;;3.10;;
179;SDS011;78;48.788;9.010;2024-03-25T13:40:37;15.37;;;3.00;;
179;SDS011;78;48.788;9.010;2024-03-25T13:43:03;19.10;;;3.73;;
179;SDS011;78;48.788;9.010;2024-03-25T13:45:31;15.40;;;3.10;;
179;SDS011;78;48.788;9.010;2024-03-25T13:47:58;14.90;;;2.80;;
179;SDS011;78;48.788;9.010;2024-03-25T13:50:24;17.57;;;3.20;;
179;SDS011;78;48.788;9.010;2024-03-25T13:52:50;15.80;;;2.97;;
179;SDS011;78;48.788;9.010;2024-03-25T13:55:17;15.77;;;2.83;;
179;SDS011;78;48.788;9.010;2024-03-25T13:57:44;14.63;;;2.77;;
179;SDS011;78;48.788;9.010;2024-03-25T14:00:10;19.23;;;2.83;;
179;SDS011;78;48.788;9.010;2024-03-25T14:02:36;15.20;;;2.70;;
179;SDS011;78;48.788;9.010;2024-03-25T14:05:05;14.60;;;2.80;;
179;SDS011;78;48.788;9.010;2024-03-25T14:07:31;15.30;;;2.87;;
179;SDS011;78;48.788;9.010;2024-03-25T14:09:57;18.03;;;2.80;;
179;SDS011;78;48.788;9.010;2024-03-25T14:12:24;15.23;;;2.60;;
179;SDS011;78;48.788;9.010;2024-03-25T14:14:51;17.03;;;3.13;;
179;SDS011;78;48.788;9.010;2024-03-25T14:17:17;15.80;;;3.03;;
179;SDS011;78;48.788;9.010;2024-03-25T14:19:43;16.17;;;2.97;;
179;SDS011;78;48.788;9.010;2024-03-25T14:22:09;15.97;;;2.97;;
179;SDS011;78;48.788;9.010;2024-03-25T14:24:35;14.97;;;2.97;;
179;SDS011;78;48.788;9.010;2024-03-25T14:27:02;14.27;;;2.40;;
179;SDS011;78;48.788;9.010;2024-03-25T14:29:28;17.87;;;3.03;;
179;SDS011;78;48.788;9.010;2024-03-25T14:31:55;14.67;;;2.77;;
179;SDS011;78;48.788;9.010;2024-03-25T14:34:21;16.40;;;2.90;;
179;SDS011;78;48.788;9.010;2024-03-25T14:36:47;15.17;;;2.73;;
179;SDS011;78;48.788;9.010;2024-03-25T14:39:15;13.93;;;2.53;;
179;SDS011;78;48.788;9.010;2024-03-25T14:41:41;15.53;;;2.60;;
179;SDS011;78;48.788;9.010;2024-03-25T14:44:07;14.50;;;2.53;;
179;SDS011;78;48.788;9.010;2024-03-25T14:46:33;15.20;;;2.77;;
179;SDS011;78;48.788;9.010;2024-03-25T14:48:59;16.03;;;2.90;;
179;SDS011;78;48.788;9.010;2024-03-25T14:51:25;14.57;;;2.50;;
179;SDS011;78;48.788;9.010;2024-03-25T14:53:51;17.20;;;2.77;;
179;SDS011;78;48.788;9.010;2024-03-25T14:56:17;16.57;;;2.90;;
179;SDS011;78;48.788;9.010;2024-03-25T14:58:43;15.00;;;2.63;;
179;SDS011;78;48.788;9.010;2024-03-25T15:01:10;18.20;;;2.60;;
179;SDS011;78;48.788;9.010;2024-03-25T15:03:36;14.30;;;2.50;;
179;SDS011;78;48.788;9.010;2024-03-25T15:06:02;15.53;;;2.83;;
179;SDS011;78;48.788;9.010;2024-03-25T15:08:29;14.67;;;2.10;;
179;SDS011;78;48.788;9.010;2024-03-25T15:10:56;15.10;;;2.60;;
179;SDS011;78;48.788;9.010;2024-03-25T15:13:22;13.80;;;2.40;;
179;SDS011;78;48.788;9.010;2024-03-25T15:15:48;14.50;;;2.50;;
179;SDS011;78;48.788;9.010;2024-03-25T15:18:14;15.17;;;2.50;;
179;SDS011;78;48.788;9.010;2024-03-25T15:20:40;14.00;;;2.40;;
179;SDS011;78;48.788;9.010;2024-03-25T15:23:06;15.87;;;2.83;;
179;SDS011;78;48.788;9.010;2024-03-25T15:25:33;14.80;;;3.00;;
179;SDS011;78;48.788;9.010;2024-03-25T15:27:59;16.93;;;3.10;;
179;SDS011;78;48.788;9.010;2024-03-25T15:30:25;16.63;;;3.30;;
179;SDS011;78;48.788;9.010;2024-03-25T15:32:52;14.97;;;2.63;;
179;SDS011;78;48.788;9.010;2024-03-25T15:35:18;14.53;;;3.00;;
179;SDS011;78;48.788;9.010;2024-03-25T15:37:44;16.20;;;3.00;;
179;SDS011;78;48.788;9.010;2024-03-25T15:40:10;16.27;;;2.80;;
179;SDS011;78;48.788;9.010;2024-03-25T15:42:40;16.90;;;3.13;;